| Date | Time | Temp. (oF) | Dew Point (oF) | Rel. Hum. (%) | Press. (in.) | Wind Dir. (deg.) | Wind Speed (mph) | Hourly Rainfall (i n.) |
|
|---|---|---|---|---|---|---|---|---|---|
| 1 | 06/28 | 24:00 | 79 | 71 | 79 | 30.05 | 140 | 4 | 0.00 |
| 2 | 06/27 | 23:00 | 79 | 71 | 78 | 30.05 | 120 | 9 | 0.00 |
| 3 | 06/27 | 22:00 | 80 | 72 | 78 | 30.01 | 190 | 9 | 0.00 |
| 4 | 06/27 | 21:00 | 81 | 71 | 74 | 29.96 | 130 | 2 | 0.00 |
| 5 | 06/27 | 20:00 | 82 | 71 | 70 | 29.99 | 130 | 2 | 0.00 |
| 6 | 06/27 | 19:00 | 84 | 71 | 66 | 29.99 | 140 | 4 | 0.00 |
| 7 | 06/27 | 18:00 | 86 | 71 | 62 | 30.01 | 130 | 6 | 0.00 |
| 8 | 06/27 | 17:00 | 86 | 70 | 60 | 30.03 | 190 | 4 | 0.00 |
| 9 | 06/27 | 16:00 | 86 | 71 | 62 | 30.04 | 110 | 9 | 0.00 |
| 10 | 06/27 | 15:00 | 87 | 71 | 60 | 30.05 | 150 | 9 | 0.00 |
| 11 | 06/27 | 14:00 | 87 | 71 | 61 | 30.08 | 130 | 6 | 0.00 |
| 12 | 06/27 | 13:00 | 88 | 70 | 57 | 30.10 | 120 | 9 | 0.00 |
| 13 | 06/27 | 12:00 | 89 | 68 | 52 | 30.12 | 130 | 6 | 0.00 |
| 14 | 06/27 | 11:00 | 87 | 71 | 60 | 30.21 | 260 | 7 | 0.00 |
| 15 | 06/27 | 10:00 | 81 | 72 | 76 | 30.19 | 140 | 1 | 0.00 |
| 16 | 06/27 | 09:00 | 76 | 71 | 85 | 30.19 | 140 | 1 | 0.00 |
| 17 | 06/27 | 08:00 | 73 | 69 | 88 | 30.19 | 140 | 0 | 0.00 |
| 18 | 06/27 | 07:00 | 71 | 66 | 87 | 30.18 | 140 | 0 | 0.00 |
| 19 | 06/27 | 06:00 | 70 | 65 | 85 | 30.17 | 140 | 0 | 0.00 |
| 20 | 06/27 | 05:00 | 71 | 65 | 83 | 30.15 | 140 | 0 | 0.00 |
| 21 | 06/27 | 04:00 | 72 | 66 | 82 | 30.15 | 140 | 0 | 0.00 |
| 22 | 06/27 | 03:00 | 73 | 65 | 77 | 30.15 | 140 | 0 | 0.00 |
| 23 | 06/27 | 02:00 | 74 | 65 | 74 | 30.16 | 140 | 0 | 0.00 |
| 24 | 06/27 | 01:00 | 75 | 65 | 72 | 30.17 | 140 | 1 | 0.00 |